sensor_id;sensor_type;location;lat;lon;timestamp;P1;durP1;ratioP1;P2;durP2;ratioP2
74269;SDS011;62754;48.252;11.654;2023-02-01T00:01:44;3.97;;;2.10;;
74269;SDS011;62754;48.252;11.654;2023-02-01T00:04:10;5.25;;;2.35;;
74269;SDS011;62754;48.252;11.654;2023-02-01T00:06:35;3.85;;;1.90;;
74269;SDS011;62754;48.252;11.654;2023-02-01T00:09:01;3.90;;;2.10;;
74269;SDS011;62754;48.252;11.654;2023-02-01T00:11:27;3.08;;;1.48;;
74269;SDS011;62754;48.252;11.654;2023-02-01T00:13:53;4.93;;;1.77;;
74269;SDS011;62754;48.252;11.654;2023-02-01T00:16:20;3.58;;;1.70;;
74269;SDS011;62754;48.252;11.654;2023-02-01T00:18:47;4.25;;;1.30;;
74269;SDS011;62754;48.252;11.654;2023-02-01T00:21:17;3.83;;;1.80;;
74269;SDS011;62754;48.252;11.654;2023-02-01T00:23:44;5.15;;;2.13;;
74269;SDS011;62754;48.252;11.654;2023-02-01T00:26:14;3.13;;;1.30;;
74269;SDS011;62754;48.252;11.654;2023-02-01T00:28:42;3.97;;;1.60;;
74269;SDS011;62754;48.252;11.654;2023-02-01T00:31:07;4.78;;;1.90;;
74269;SDS011;62754;48.252;11.654;2023-02-01T00:33:33;3.50;;;1.75;;
74269;SDS011;62754;48.252;11.654;2023-02-01T00:36:00;3.58;;;1.90;;
74269;SDS011;62754;48.252;11.654;2023-02-01T00:38:31;4.50;;;2.15;;
74269;SDS011;62754;48.252;11.654;2023-02-01T00:41:31;4.63;;;2.30;;
74269;SDS011;62754;48.252;11.654;2023-02-01T00:43:50;4.85;;;2.00;;
74269;SDS011;62754;48.252;11.654;2023-02-01T00:46:17;5.32;;;2.78;;
74269;SDS011;62754;48.252;11.654;2023-02-01T00:48:44;5.05;;;2.50;;
74269;SDS011;62754;48.252;11.654;2023-02-01T00:51:13;5.57;;;3.15;;
74269;SDS011;62754;48.252;11.654;2023-02-01T00:53:50;6.45;;;3.10;;
74269;SDS011;62754;48.252;11.654;2023-02-01T00:56:16;6.38;;;2.55;;
74269;SDS011;62754;48.252;11.654;2023-02-01T00:58:42;5.63;;;2.70;;
74269;SDS011;62754;48.252;11.654;2023-02-01T01:01:09;6.20;;;2.78;;
74269;SDS011;62754;48.252;11.654;2023-02-01T01:03:40;7.50;;;3.00;;
74269;SDS011;62754;48.252;11.654;2023-02-01T01:06:10;6.10;;;3.00;;
74269;SDS011;62754;48.252;11.654;2023-02-01T01:08:37;7.47;;;3.20;;
74269;SDS011;62754;48.252;11.654;2023-02-01T01:11:05;7.35;;;3.40;;
74269;SDS011;62754;48.252;11.654;2023-02-01T01:13:35;6.25;;;3.40;;
74269;SDS011;62754;48.252;11.654;2023-02-01T01:16:02;7.93;;;3.42;;
74269;SDS011;62754;48.252;11.654;2023-02-01T01:18:30;6.15;;;3.60;;
74269;SDS011;62754;48.252;11.654;2023-02-01T01:20:56;8.20;;;3.53;;
74269;SDS011;62754;48.252;11.654;2023-02-01T01:23:23;8.43;;;4.30;;
74269;SDS011;62754;48.252;11.654;2023-02-01T01:25:49;8.02;;;3.58;;
74269;SDS011;62754;48.252;11.654;2023-02-01T01:28:14;6.82;;;3.50;;
74269;SDS011;62754;48.252;11.654;2023-02-01T01:30:40;7.35;;;3.58;;
74269;SDS011;62754;48.252;11.654;2023-02-01T01:33:06;10.63;;;3.75;;
74269;SDS011;62754;48.252;11.654;2023-02-01T01:35:32;8.55;;;3.70;;
74269;SDS011;62754;48.252;11.654;2023-02-01T01:37:59;7.50;;;3.45;;
74269;SDS011;62754;48.252;11.654;2023-02-01T01:40:26;7.47;;;4.40;;
74269;SDS011;62754;48.252;11.654;2023-02-01T01:42:52;8.02;;;3.70;;
74269;SDS011;62754;48.252;11.654;2023-02-01T01:47:48;8.23;;;3.92;;
74269;SDS011;62754;48.252;11.654;2023-02-01T01:50:23;6.72;;;3.80;;
74269;SDS011;62754;48.252;11.654;2023-02-01T01:52:56;9.63;;;3.90;;
74269;SDS011;62754;48.252;11.654;2023-02-01T01:55:24;7.57;;;4.20;;
74269;SDS011;62754;48.252;11.654;2023-02-01T01:57:55;7.50;;;3.72;;
74269;SDS011;62754;48.252;11.654;2023-02-01T02:00:24;8.52;;;4.05;;
74269;SDS011;62754;48.252;11.654;2023-02-01T02:02:53;8.57;;;4.03;;
74269;SDS011;62754;48.252;11.654;2023-02-01T02:05:22;8.25;;;4.35;;
74269;SDS011;62754;48.252;11.654;2023-02-01T02:07:49;7.35;;;3.70;;
74269;SDS011;62754;48.252;11.654;2023-02-01T02:10:18;8.63;;;4.13;;
74269;SDS011;62754;48.252;11.654;2023-02-01T02:12:45;8.18;;;4.13;;
74269;SDS011;62754;48.252;11.654;2023-02-01T02:15:14;7.00;;;4.05;;
74269;SDS011;62754;48.252;11.654;2023-02-01T02:17:50;7.07;;;4.03;;
74269;SDS011;62754;48.252;11.654;2023-02-01T02:37:04;6.45;;;3.90;;
74269;SDS011;62754;48.252;11.654;2023-02-01T02:44:56;7.13;;;4.07;;
74269;SDS011;62754;48.252;11.654;2023-02-01T02:50:23;8.07;;;3.58;;
74269;SDS011;62754;48.252;11.654;2023-02-01T02:52:59;6.97;;;4.00;;
74269;SDS011;62754;48.252;11.654;2023-02-01T02:55:31;6.78;;;3.53;;
74269;SDS011;62754;48.252;11.654;2023-02-01T02:57:59;6.22;;;3.63;;
74269;SDS011;62754;48.252;11.654;2023-02-01T03:00:30;8.18;;;3.50;;
74269;SDS011;62754;48.252;11.654;2023-02-01T03:02:58;5.80;;;3.47;;
74269;SDS011;62754;48.252;11.654;2023-02-01T03:05:24;6.60;;;3.10;;
74269;SDS011;62754;48.252;11.654;2023-02-01T03:21:18;5.90;;;3.33;;
74269;SDS011;62754;48.252;11.654;2023-02-01T03:24:08;7.05;;;3.47;;
74269;SDS011;62754;48.252;11.654;2023-02-01T03:26:38;5.97;;;3.17;;
74269;SDS011;62754;48.252;11.654;2023-02-01T03:29:11;6.13;;;3.33;;
74269;SDS011;62754;48.252;11.654;2023-02-01T03:31:40;5.53;;;3.55;;
74269;SDS011;62754;48.252;11.654;2023-02-01T03:34:06;5.32;;;3.10;;
74269;SDS011;62754;48.252;11.654;2023-02-01T03:36:35;5.05;;;3.00;;
74269;SDS011;62754;48.252;11.654;2023-02-01T03:41:58;6.07;;;2.97;;
74269;SDS011;62754;48.252;11.654;2023-02-01T03:47:10;6.90;;;3.22;;
74269;SDS011;62754;48.252;11.654;2023-02-01T03:49:44;4.95;;;2.60;;
74269;SDS011;62754;48.252;11.654;2023-02-01T03:52:12;7.93;;;3.08;;
74269;SDS011;62754;48.252;11.654;2023-02-01T03:54:42;6.88;;;3.03;;
74269;SDS011;62754;48.252;11.654;2023-02-01T03:57:10;6.78;;;3.42;;
74269;SDS011;62754;48.252;11.654;2023-02-01T03:59:39;5.82;;;2.90;;
74269;SDS011;62754;48.252;11.654;2023-02-01T04:02:08;6.00;;;2.95;;
74269;SDS011;62754;48.252;11.654;2023-02-01T04:04:34;6.22;;;3.38;;
74269;SDS011;62754;48.252;11.654;2023-02-01T04:07:00;5.18;;;3.25;;
74269;SDS011;62754;48.252;11.654;2023-02-01T04:09:26;4.70;;;2.53;;
74269;SDS011;62754;48.252;11.654;2023-02-01T04:11:51;6.93;;;2.70;;
74269;SDS011;62754;48.252;11.654;2023-02-01T04:14:17;5.28;;;2.75;;
74269;SDS011;62754;48.252;11.654;2023-02-01T04:16:43;5.85;;;2.72;;
74269;SDS011;62754;48.252;11.654;2023-02-01T04:19:09;6.75;;;2.75;;
74269;SDS011;62754;48.252;11.654;2023-02-01T04:21:35;4.78;;;2.15;;
74269;SDS011;62754;48.252;11.654;2023-02-01T04:24:00;5.05;;;2.50;;
74269;SDS011;62754;48.252;11.654;2023-02-01T04:26:26;8.07;;;2.97;;
74269;SDS011;62754;48.252;11.654;2023-02-01T04:28:52;5.07;;;2.63;;
74269;SDS011;62754;48.252;11.654;2023-02-01T04:31:18;5.30;;;2.72;;
74269;SDS011;62754;48.252;11.654;2023-02-01T04:33:44;5.97;;;3.03;;
74269;SDS011;62754;48.252;11.654;2023-02-01T04:36:09;5.57;;;2.30;;
74269;SDS011;62754;48.252;11.654;2023-02-01T04:38:35;5.93;;;2.47;;
74269;SDS011;62754;48.252;11.654;2023-02-01T04:41:01;5.07;;;2.70;;
74269;SDS011;62754;48.252;11.654;2023-02-01T04:43:27;4.97;;;2.60;;
74269;SDS011;62754;48.252;11.654;2023-02-01T04:45:52;7.80;;;2.53;;
74269;SDS011;62754;48.252;11.654;2023-02-01T04:48:18;5.20;;;2.60;;
74269;SDS011;62754;48.252;11.654;2023-02-01T04:50:45;7.28;;;3.00;;
74269;SDS011;62754;48.252;11.654;2023-02-01T04:53:12;5.05;;;2.80;;
74269;SDS011;62754;48.252;11.654;2023-02-01T04:55:38;5.90;;;2.85;;
74269;SDS011;62754;48.252;11.654;2023-02-01T04:58:04;6.70;;;2.65;;
74269;SDS011;62754;48.252;11.654;2023-02-01T05:00:30;4.88;;;2.40;;
74269;SDS011;62754;48.252;11.654;2023-02-01T05:02:55;5.57;;;2.63;;
74269;SDS011;62754;48.252;11.654;2023-02-01T05:05:21;5.40;;;2.78;;
74269;SDS011;62754;48.252;11.654;2023-02-01T05:07:47;5.03;;;2.63;;
74269;SDS011;62754;48.252;11.654;2023-02-01T05:10:12;6.85;;;2.70;;
74269;SDS011;62754;48.252;11.654;2023-02-01T05:12:38;4.90;;;2.58;;
74269;SDS011;62754;48.252;11.654;2023-02-01T05:15:04;6.78;;;3.03;;
74269;SDS011;62754;48.252;11.654;2023-02-01T05:17:30;5.40;;;2.92;;
74269;SDS011;62754;48.252;11.654;2023-02-01T05:19:56;6.57;;;2.90;;
74269;SDS011;62754;48.252;11.654;2023-02-01T05:22:22;4.80;;;2.40;;
74269;SDS011;62754;48.252;11.654;2023-02-01T05:24:48;5.65;;;3.22;;
74269;SDS011;62754;48.252;11.654;2023-02-01T05:27:13;5.93;;;3.05;;
74269;SDS011;62754;48.252;11.654;2023-02-01T05:29:39;4.57;;;2.55;;
74269;SDS011;62754;48.252;11.654;2023-02-01T05:32:05;5.60;;;2.90;;
74269;SDS011;62754;48.252;11.654;2023-02-01T05:34:31;4.80;;;2.67;;
74269;SDS011;62754;48.252;11.654;2023-02-01T05:36:56;6.05;;;2.85;;
74269;SDS011;62754;48.252;11.654;2023-02-01T05:39:22;4.95;;;2.35;;
74269;SDS011;62754;48.252;11.654;2023-02-01T05:41:48;4.38;;;2.53;;
74269;SDS011;62754;48.252;11.654;2023-02-01T05:44:13;6.00;;;3.38;;
74269;SDS011;62754;48.252;11.654;2023-02-01T05:46:39;4.78;;;2.97;;
74269;SDS011;62754;48.252;11.654;2023-02-01T05:49:05;6.72;;;2.97;;
74269;SDS011;62754;48.252;11.654;2023-02-01T05:51:31;5.88;;;2.85;;
74269;SDS011;62754;48.252;11.654;2023-02-01T05:53:56;5.82;;;2.83;;
74269;SDS011;62754;48.252;11.654;2023-02-01T05:56:22;7.20;;;3.38;;
74269;SDS011;62754;48.252;11.654;2023-02-01T05:58:48;6.30;;;3.08;;
74269;SDS011;62754;48.252;11.654;2023-02-01T06:01:14;7.00;;;3.30;;
74269;SDS011;62754;48.252;11.654;2023-02-01T06:03:39;4.80;;;2.60;;
74269;SDS011;62754;48.252;11.654;2023-02-01T06:06:05;7.00;;;3.45;;
74269;SDS011;62754;48.252;11.654;2023-02-01T06:08:31;6.10;;;2.80;;
74269;SDS011;62754;48.252;11.654;2023-02-01T06:10:57;5.65;;;3.38;;
74269;SDS011;62754;48.252;11.654;2023-02-01T06:13:24;6.32;;;2.80;;
74269;SDS011;62754;48.252;11.654;2023-02-01T06:15:50;5.90;;;2.90;;
74269;SDS011;62754;48.252;11.654;2023-02-01T06:18:15;6.90;;;3.17;;
74269;SDS011;62754;48.252;11.654;2023-02-01T06:20:41;5.35;;;2.60;;
74269;SDS011;62754;48.252;11.654;2023-02-01T06:23:07;5.82;;;3.20;;
74269;SDS011;62754;48.252;11.654;2023-02-01T06:25:33;5.78;;;2.50;;
74269;SDS011;62754;48.252;11.654;2023-02-01T06:28:02;7.40;;;2.83;;
74269;SDS011;62754;48.252;11.654;2023-02-01T06:30:27;6.82;;;2.78;;
74269;SDS011;62754;48.252;11.654;2023-02-01T06:32:53;6.03;;;2.80;;
74269;SDS011;62754;48.252;11.654;2023-02-01T06:35:19;5.88;;;3.03;;
74269;SDS011;62754;48.252;11.654;2023-02-01T06:37:45;5.43;;;3.10;;
74269;SDS011;62754;48.252;11.654;2023-02-01T06:40:10;6.18;;;3.30;;
74269;SDS011;62754;48.252;11.654;2023-02-01T06:42:36;5.03;;;2.75;;
74269;SDS011;62754;48.252;11.654;2023-02-01T06:45:03;7.50;;;2.90;;
74269;SDS011;62754;48.252;11.654;2023-02-01T06:47:29;6.57;;;2.80;;
74269;SDS011;62754;48.252;11.654;2023-02-01T06:49:54;6.70;;;2.90;;
74269;SDS011;62754;48.252;11.654;2023-02-01T06:52:20;4.32;;;2.70;;
74269;SDS011;62754;48.252;11.654;2023-02-01T06:54:46;6.25;;;2.95;;
74269;SDS011;62754;48.252;11.654;2023-02-01T06:57:11;6.82;;;3.90;;
74269;SDS011;62754;48.252;11.654;2023-02-01T06:59:37;5.20;;;2.58;;
74269;SDS011;62754;48.252;11.654;2023-02-01T07:02:03;5.45;;;3.10;;
74269;SDS011;62754;48.252;11.654;2023-02-01T07:04:29;4.45;;;2.38;;
74269;SDS011;62754;48.252;11.654;2023-02-01T07:06:54;5.63;;;2.85;;
74269;SDS011;62754;48.252;11.654;2023-02-01T07:09:20;4.72;;;2.50;;
74269;SDS011;62754;48.252;11.654;2023-02-01T07:11:46;4.93;;;2.28;;
74269;SDS011;62754;48.252;11.654;2023-02-01T07:14:12;5.35;;;2.63;;
74269;SDS011;62754;48.252;11.654;2023-02-01T07:16:38;5.07;;;2.78;;
74269;SDS011;62754;48.252;11.654;2023-02-01T07:19:04;5.47;;;2.65;;
74269;SDS011;62754;48.252;11.654;2023-02-01T07:21:29;4.00;;;2.25;;
74269;SDS011;62754;48.252;11.654;2023-02-01T07:23:55;6.30;;;2.80;;
74269;SDS011;62754;48.252;11.654;2023-02-01T07:26:21;4.80;;;2.75;;
74269;SDS011;62754;48.252;11.654;2023-02-01T07:28:47;5.32;;;2.70;;
74269;SDS011;62754;48.252;11.654;2023-02-01T07:31:14;4.53;;;2.65;;
74269;SDS011;62754;48.252;11.654;2023-02-01T07:33:41;4.60;;;2.33;;
74269;SDS011;62754;48.252;11.654;2023-02-01T07:36:08;5.93;;;2.35;;
74269;SDS011;62754;48.252;11.654;2023-02-01T07:38:37;4.40;;;2.20;;
74269;SDS011;62754;48.252;11.654;2023-02-01T07:41:03;5.60;;;2.50;;
74269;SDS011;62754;48.252;11.654;2023-02-01T07:43:30;5.32;;;2.72;;
74269;SDS011;62754;48.252;11.654;2023-02-01T07:45:57;5.65;;;2.17;;
74269;SDS011;62754;48.252;11.654;2023-02-01T07:48:23;5.65;;;2.42;;
74269;SDS011;62754;48.252;11.654;2023-02-01T07:50:59;3.42;;;1.98;;
74269;SDS011;62754;48.252;11.654;2023-02-01T07:53:36;5.18;;;2.33;;
74269;SDS011;62754;48.252;11.654;2023-02-01T07:56:02;4.70;;;2.25;;
74269;SDS011;62754;48.252;11.654;2023-02-01T07:58:29;7.43;;;2.58;;
74269;SDS011;62754;48.252;11.654;2023-02-01T08:00:55;6.10;;;1.98;;
74269;SDS011;62754;48.252;11.654;2023-02-01T08:03:21;6.43;;;2.00;;
74269;SDS011;62754;48.252;11.654;2023-02-01T08:05:46;4.15;;;2.10;;
74269;SDS011;62754;48.252;11.654;2023-02-01T08:08:12;3.45;;;1.67;;
74269;SDS011;62754;48.252;11.654;2023-02-01T08:10:38;3.38;;;1.80;;
74269;SDS011;62754;48.252;11.654;2023-02-01T08:13:04;4.15;;;1.80;;
74269;SDS011;62754;48.252;11.654;2023-02-01T08:15:29;4.38;;;1.92;;
74269;SDS011;62754;48.252;11.654;2023-02-01T08:17:55;3.97;;;1.52;;
74269;SDS011;62754;48.252;11.654;2023-02-01T08:20:21;5.03;;;1.98;;
74269;SDS011;62754;48.252;11.654;2023-02-01T08:22:47;4.07;;;2.08;;
74269;SDS011;62754;48.252;11.654;2023-02-01T08:25:13;4.72;;;1.70;;
74269;SDS011;62754;48.252;11.654;2023-02-01T08:27:39;3.15;;;1.67;;
74269;SDS011;62754;48.252;11.654;2023-02-01T08:30:05;3.30;;;1.77;;
74269;SDS011;62754;48.252;11.654;2023-02-01T08:32:31;4.50;;;1.80;;
74269;SDS011;62754;48.252;11.654;2023-02-01T08:37:24;3.30;;;1.52;;
74269;SDS011;62754;48.252;11.654;2023-02-01T08:39:49;6.05;;;2.75;;
74269;SDS011;62754;48.252;11.654;2023-02-01T08:42:16;3.60;;;1.65;;
74269;SDS011;62754;48.252;11.654;2023-02-01T08:44:42;4.28;;;1.73;;
74269;SDS011;62754;48.252;11.654;2023-02-01T08:47:07;5.38;;;2.05;;
74269;SDS011;62754;48.252;11.654;2023-02-01T08:49:33;6.68;;;2.20;;
74269;SDS011;62754;48.252;11.654;2023-02-01T08:51:59;4.30;;;2.00;;
74269;SDS011;62754;48.252;11.654;2023-02-01T08:54:25;3.40;;;1.65;;
74269;SDS011;62754;48.252;11.654;2023-02-01T08:56:50;5.55;;;2.00;;
74269;SDS011;62754;48.252;11.654;2023-02-01T08:59:16;3.05;;;1.60;;
74269;SDS011;62754;48.252;11.654;2023-02-01T09:01:42;7.45;;;1.98;;
74269;SDS011;62754;48.252;11.654;2023-02-01T09:04:08;5.18;;;2.20;;
74269;SDS011;62754;48.252;11.654;2023-02-01T09:06:34;4.30;;;2.00;;
74269;SDS011;62754;48.252;11.654;2023-02-01T09:08:59;4.35;;;2.20;;
74269;SDS011;62754;48.252;11.654;2023-02-01T09:11:25;4.03;;;2.15;;
74269;SDS011;62754;48.252;11.654;2023-02-01T09:13:51;6.13;;;2.50;;
74269;SDS011;62754;48.252;11.654;2023-02-01T09:16:17;4.80;;;2.10;;
74269;SDS011;62754;48.252;11.654;2023-02-01T09:18:43;4.90;;;2.00;;
74269;SDS011;62754;48.252;11.654;2023-02-01T09:21:09;5.20;;;2.00;;
74269;SDS011;62754;48.252;11.654;2023-02-01T09:23:35;5.47;;;2.70;;
74269;SDS011;62754;48.252;11.654;2023-02-01T09:26:01;3.40;;;1.70;;
74269;SDS011;62754;48.252;11.654;2023-02-01T09:28:27;4.57;;;2.10;;
74269;SDS011;62754;48.252;11.654;2023-02-01T09:31:00;4.32;;;1.65;;
74269;SDS011;62754;48.252;11.654;2023-02-01T09:33:27;4.53;;;2.17;;
74269;SDS011;62754;48.252;11.654;2023-02-01T09:36:00;5.15;;;2.33;;
74269;SDS011;62754;48.252;11.654;2023-02-01T09:38:28;3.40;;;1.67;;
74269;SDS011;62754;48.252;11.654;2023-02-01T09:40:54;3.38;;;1.83;;
74269;SDS011;62754;48.252;11.654;2023-02-01T09:43:27;4.25;;;2.05;;
74269;SDS011;62754;48.252;11.654;2023-02-01T09:46:20;5.30;;;1.95;;
74269;SDS011;62754;48.252;11.654;2023-02-01T09:48:52;4.22;;;1.98;;
74269;SDS011;62754;48.252;11.654;2023-02-01T09:51:20;3.50;;;1.50;;
74269;SDS011;62754;48.252;11.654;2023-02-01T09:57:08;3.45;;;1.60;;
74269;SDS011;62754;48.252;11.654;2023-02-01T09:59:41;3.20;;;1.40;;
74269;SDS011;62754;48.252;11.654;2023-02-01T10:02:17;3.58;;;1.70;;
74269;SDS011;62754;48.252;11.654;2023-02-01T10:04:46;4.00;;;1.75;;
74269;SDS011;62754;48.252;11.654;2023-02-01T10:07:16;5.22;;;1.80;;
74269;SDS011;62754;48.252;11.654;2023-02-01T10:15:14;8.00;;;1.95;;
74269;SDS011;62754;48.252;11.654;2023-02-01T10:25:55;3.42;;;1.77;;
74269;SDS011;62754;48.252;11.654;2023-02-01T10:28:48;3.63;;;1.80;;
74269;SDS011;62754;48.252;11.654;2023-02-01T10:31:17;3.58;;;1.65;;
74269;SDS011;62754;48.252;11.654;2023-02-01T10:39:06;5.38;;;2.13;;
74269;SDS011;62754;48.252;11.654;2023-02-01T10:41:38;4.13;;;2.10;;
74269;SDS011;62754;48.252;11.654;2023-02-01T10:44:07;3.88;;;1.70;;
74269;SDS011;62754;48.252;11.654;2023-02-01T10:46:39;5.43;;;1.98;;
74269;SDS011;62754;48.252;11.654;2023-02-01T10:49:05;6.13;;;2.08;;
74269;SDS011;62754;48.252;11.654;2023-02-01T10:51:42;4.80;;;1.90;;
74269;SDS011;62754;48.252;11.654;2023-02-01T10:54:19;4.05;;;1.90;;
74269;SDS011;62754;48.252;11.654;2023-02-01T10:56:47;4.82;;;2.30;;
74269;SDS011;62754;48.252;11.654;2023-02-01T10:59:15;4.30;;;1.85;;
74269;SDS011;62754;48.252;11.654;2023-02-01T11:01:43;5.82;;;1.92;;
74269;SDS011;62754;48.252;11.654;2023-02-01T11:04:15;4.88;;;1.58;;
74269;SDS011;62754;48.252;11.654;2023-02-01T11:06:46;4.05;;;1.73;;
74269;SDS011;62754;48.252;11.654;2023-02-01T11:14:15;7.05;;;2.03;;
74269;SDS011;62754;48.252;11.654;2023-02-01T11:16:41;5.93;;;2.00;;
74269;SDS011;62754;48.252;11.654;2023-02-01T11:19:14;2.95;;;1.52;;
74269;SDS011;62754;48.252;11.654;2023-02-01T11:21:41;4.25;;;1.80;;
74269;SDS011;62754;48.252;11.654;2023-02-01T11:24:11;5.20;;;2.17;;
74269;SDS011;62754;48.252;11.654;2023-02-01T11:26:47;5.38;;;1.90;;
74269;SDS011;62754;48.252;11.654;2023-02-01T11:29:14;4.70;;;2.08;;
74269;SDS011;62754;48.252;11.654;2023-02-01T11:31:44;4.35;;;2.10;;
74269;SDS011;62754;48.252;11.654;2023-02-01T11:34:15;5.75;;;2.42;;
74269;SDS011;62754;48.252;11.654;2023-02-01T11:36:42;5.10;;;2.10;;
74269;SDS011;62754;48.252;11.654;2023-02-01T11:39:18;5.43;;;2.20;;
74269;SDS011;62754;48.252;11.654;2023-02-01T11:42:01;5.00;;;2.10;;
74269;SDS011;62754;48.252;11.654;2023-02-01T11:44:45;4.93;;;2.13;;
74269;SDS011;62754;48.252;11.654;2023-02-01T11:49:55;4.85;;;2.22;;
74269;SDS011;62754;48.252;11.654;2023-02-01T12:00:46;5.15;;;2.60;;
74269;SDS011;62754;48.252;11.654;2023-02-01T12:03:21;4.45;;;2.40;;
74269;SDS011;62754;48.252;11.654;2023-02-01T12:09:16;5.47;;;2.55;;
74269;SDS011;62754;48.252;11.654;2023-02-01T12:11:51;7.53;;;2.97;;
74269;SDS011;62754;48.252;11.654;2023-02-01T12:14:24;5.97;;;2.35;;
74269;SDS011;62754;48.252;11.654;2023-02-01T12:31:36;4.68;;;2.38;;
74269;SDS011;62754;48.252;11.654;2023-02-01T12:39:40;5.43;;;2.67;;
74269;SDS011;62754;48.252;11.654;2023-02-01T12:42:31;5.53;;;2.53;;
74269;SDS011;62754;48.252;11.654;2023-02-01T12:47:57;4.10;;;2.30;;
74269;SDS011;62754;48.252;11.654;2023-02-01T12:50:36;5.15;;;2.20;;
74269;SDS011;62754;48.252;11.654;2023-02-01T12:53:12;4.95;;;2.30;;
74269;SDS011;62754;48.252;11.654;2023-02-01T12:55:46;7.22;;;2.42;;
74269;SDS011;62754;48.252;11.654;2023-02-01T12:58:38;7.85;;;2.10;;
74269;SDS011;62754;48.252;11.654;2023-02-01T13:01:12;5.65;;;2.45;;
74269;SDS011;62754;48.252;11.654;2023-02-01T13:04:05;4.40;;;2.10;;
74269;SDS011;62754;48.252;11.654;2023-02-01T13:06:42;5.00;;;2.13;;
74269;SDS011;62754;48.252;11.654;2023-02-01T13:11:40;4.72;;;2.13;;
74269;SDS011;62754;48.252;11.654;2023-02-01T13:19:47;6.07;;;2.38;;
74269;SDS011;62754;48.252;11.654;2023-02-01T13:24:59;8.23;;;2.30;;
74269;SDS011;62754;48.252;11.654;2023-02-01T13:27:28;4.63;;;2.00;;
74269;SDS011;62754;48.252;11.654;2023-02-01T13:30:06;7.72;;;2.72;;
74269;SDS011;62754;48.252;11.654;2023-02-01T13:32:50;3.75;;;1.75;;
74269;SDS011;62754;48.252;11.654;2023-02-01T13:43:06;4.75;;;2.10;;
74269;SDS011;62754;48.252;11.654;2023-02-01T13:45:41;4.60;;;2.10;;
74269;SDS011;62754;48.252;11.654;2023-02-01T13:48:17;6.25;;;2.33;;
74269;SDS011;62754;48.252;11.654;2023-02-01T13:50:56;5.80;;;2.20;;
74269;SDS011;62754;48.252;11.654;2023-02-01T13:53:27;6.72;;;2.47;;
74269;SDS011;62754;48.252;11.654;2023-02-01T13:55:57;4.25;;;1.77;;
74269;SDS011;62754;48.252;11.654;2023-02-01T13:58:37;5.50;;;2.50;;
74269;SDS011;62754;48.252;11.654;2023-02-01T14:06:15;5.43;;;2.38;;
74269;SDS011;62754;48.252;11.654;2023-02-01T14:11:51;4.45;;;2.40;;
74269;SDS011;62754;48.252;11.654;2023-02-01T14:19:33;4.55;;;2.00;;
74269;SDS011;62754;48.252;11.654;2023-02-01T14:22:00;3.85;;;2.00;;
74269;SDS011;62754;48.252;11.654;2023-02-01T14:24:56;5.40;;;2.30;;
74269;SDS011;62754;48.252;11.654;2023-02-01T14:27:24;4.70;;;1.65;;
74269;SDS011;62754;48.252;11.654;2023-02-01T14:29:56;6.53;;;2.50;;
74269;SDS011;62754;48.252;11.654;2023-02-01T14:32:25;7.45;;;2.33;;
74269;SDS011;62754;48.252;11.654;2023-02-01T14:34:57;6.47;;;2.50;;
74269;SDS011;62754;48.252;11.654;2023-02-01T14:37:32;4.35;;;2.03;;
74269;SDS011;62754;48.252;11.654;2023-02-01T14:40:04;4.93;;;2.13;;
74269;SDS011;62754;48.252;11.654;2023-02-01T14:47:43;8.38;;;2.28;;
74269;SDS011;62754;48.252;11.654;2023-02-01T14:52:44;4.85;;;1.88;;
74269;SDS011;62754;48.252;11.654;2023-02-01T14:55:17;4.25;;;1.98;;
74269;SDS011;62754;48.252;11.654;2023-02-01T14:57:52;4.70;;;1.90;;
74269;SDS011;62754;48.252;11.654;2023-02-01T15:00:29;4.90;;;2.08;;
74269;SDS011;62754;48.252;11.654;2023-02-01T15:03:13;3.38;;;1.67;;
74269;SDS011;62754;48.252;11.654;2023-02-01T15:05:52;6.07;;;1.65;;
74269;SDS011;62754;48.252;11.654;2023-02-01T15:08:23;5.57;;;1.85;;
74269;SDS011;62754;48.252;11.654;2023-02-01T15:10:52;5.90;;;1.40;;
74269;SDS011;62754;48.252;11.654;2023-02-01T15:13:24;6.18;;;1.80;;
74269;SDS011;62754;48.252;11.654;2023-02-01T15:16:02;5.28;;;1.92;;
74269;SDS011;62754;48.252;11.654;2023-02-01T15:18:39;4.90;;;1.50;;
74269;SDS011;62754;48.252;11.654;2023-02-01T15:21:06;7.43;;;1.80;;
74269;SDS011;62754;48.252;11.654;2023-02-01T15:23:39;6.90;;;2.17;;
74269;SDS011;62754;48.252;11.654;2023-02-01T15:26:05;4.60;;;1.77;;
74269;SDS011;62754;48.252;11.654;2023-02-01T15:28:31;5.07;;;1.73;;
74269;SDS011;62754;48.252;11.654;2023-02-01T15:30:58;6.18;;;1.70;;
74269;SDS011;62754;48.252;11.654;2023-02-01T15:33:29;5.38;;;1.80;;
74269;SDS011;62754;48.252;11.654;2023-02-01T15:36:06;5.03;;;1.35;;
74269;SDS011;62754;48.252;11.654;2023-02-01T15:38:34;8.00;;;1.90;;
74269;SDS011;62754;48.252;11.654;2023-02-01T15:44:02;4.25;;;1.40;;
74269;SDS011;62754;48.252;11.654;2023-02-01T15:46:31;5.95;;;1.58;;
74269;SDS011;62754;48.252;11.654;2023-02-01T15:49:00;8.07;;;1.60;;
74269;SDS011;62754;48.252;11.654;2023-02-01T15:51:27;5.28;;;1.48;;
74269;SDS011;62754;48.252;11.654;2023-02-01T15:54:01;7.78;;;1.70;;
74269;SDS011;62754;48.252;11.654;2023-02-01T15:56:38;6.07;;;1.70;;
74269;SDS011;62754;48.252;11.654;2023-02-01T15:59:06;5.93;;;1.95;;
74269;SDS011;62754;48.252;11.654;2023-02-01T16:01:40;3.88;;;1.70;;
74269;SDS011;62754;48.252;11.654;2023-02-01T16:04:20;5.68;;;2.00;;
74269;SDS011;62754;48.252;11.654;2023-02-01T16:09:13;3.45;;;1.70;;
74269;SDS011;62754;48.252;11.654;2023-02-01T16:14:11;4.18;;;1.45;;
74269;SDS011;62754;48.252;11.654;2023-02-01T16:16:37;3.38;;;1.35;;
74269;SDS011;62754;48.252;11.654;2023-02-01T16:19:03;5.53;;;1.27;;
74269;SDS011;62754;48.252;11.654;2023-02-01T16:21:28;6.13;;;1.50;;
74269;SDS011;62754;48.252;11.654;2023-02-01T16:23:54;5.65;;;1.27;;
74269;SDS011;62754;48.252;11.654;2023-02-01T16:26:20;4.35;;;1.20;;
74269;SDS011;62754;48.252;11.654;2023-02-01T16:28:46;3.47;;;1.10;;
74269;SDS011;62754;48.252;11.654;2023-02-01T16:31:13;4.13;;;1.50;;
74269;SDS011;62754;48.252;11.654;2023-02-01T16:33:40;2.90;;;1.13;;
74269;SDS011;62754;48.252;11.654;2023-02-01T16:36:07;4.18;;;1.15;;
74269;SDS011;62754;48.252;11.654;2023-02-01T16:38:33;6.95;;;1.58;;
74269;SDS011;62754;48.252;11.654;2023-02-01T16:40:59;8.48;;;1.98;;
74269;SDS011;62754;48.252;11.654;2023-02-01T16:43:25;5.60;;;1.65;;
74269;SDS011;62754;48.252;11.654;2023-02-01T16:45:52;5.13;;;1.35;;
74269;SDS011;62754;48.252;11.654;2023-02-01T16:48:20;4.70;;;1.10;;
74269;SDS011;62754;48.252;11.654;2023-02-01T16:50:50;4.15;;;1.17;;
74269;SDS011;62754;48.252;11.654;2023-02-01T16:53:19;3.90;;;1.20;;
74269;SDS011;62754;48.252;11.654;2023-02-01T16:55:45;7.13;;;1.48;;
74269;SDS011;62754;48.252;11.654;2023-02-01T16:58:11;4.32;;;1.35;;
74269;SDS011;62754;48.252;11.654;2023-02-01T17:00:37;5.40;;;1.58;;
74269;SDS011;62754;48.252;11.654;2023-02-01T17:03:03;5.03;;;1.75;;
74269;SDS011;62754;48.252;11.654;2023-02-01T17:05:29;7.78;;;1.77;;
74269;SDS011;62754;48.252;11.654;2023-02-01T17:07:56;5.28;;;1.40;;
74269;SDS011;62754;48.252;11.654;2023-02-01T17:10:26;3.72;;;1.45;;
74269;SDS011;62754;48.252;11.654;2023-02-01T17:12:52;2.50;;;1.27;;
74269;SDS011;62754;48.252;11.654;2023-02-01T17:15:18;5.97;;;1.60;;
74269;SDS011;62754;48.252;11.654;2023-02-01T17:17:43;5.90;;;1.98;;
74269;SDS011;62754;48.252;11.654;2023-02-01T17:20:16;4.88;;;1.55;;
74269;SDS011;62754;48.252;11.654;2023-02-01T17:22:44;4.97;;;1.50;;
74269;SDS011;62754;48.252;11.654;2023-02-01T17:25:14;4.65;;;1.85;;